createdAt,value
2019-05-11T00:01:22.133Z,1.57
2019-05-11T00:03:51.041Z,1.90
2019-05-11T00:06:22.015Z,1.70
2019-05-11T00:08:50.858Z,2.17
2019-05-11T00:11:19.693Z,1.77
2019-05-11T00:13:48.538Z,2.10
2019-05-11T00:16:19.179Z,1.50
2019-05-11T00:18:47.810Z,2.10
2019-05-11T00:21:16.728Z,1.57
2019-05-11T00:23:45.566Z,1.80
2019-05-11T00:26:14.411Z,1.87
2019-05-11T00:28:43.256Z,1.73
2019-05-11T00:31:15.058Z,1.80
2019-05-11T00:33:43.966Z,1.77
2019-05-11T00:36:12.816Z,1.70
2019-05-11T00:38:41.700Z,2.00
2019-05-11T00:41:10.670Z,2.00
2019-05-11T00:43:39.520Z,1.70
2019-05-11T00:46:08.363Z,1.60
2019-05-11T00:48:37.277Z,1.80
2019-05-11T00:51:06.109Z,1.63
2019-05-11T00:53:35.061Z,1.90
2019-05-11T00:56:03.961Z,2.03
2019-05-11T00:58:34.796Z,1.93
2019-05-11T01:01:03.388Z,2.10
2019-05-11T01:03:32.242Z,2.23
2019-05-11T01:06:01.143Z,1.70
2019-05-11T01:08:30.004Z,2.30
2019-05-11T01:10:58.904Z,2.13
2019-05-11T01:13:27.741Z,1.90
2019-05-11T01:15:56.296Z,2.33
2019-05-11T01:18:25.189Z,2.22
2019-05-11T01:20:54.125Z,2.13
2019-05-11T01:23:23.018Z,1.70
2019-05-11T01:25:51.990Z,2.20
2019-05-11T01:28:20.909Z,1.73
2019-05-11T01:30:49.753Z,2.00
2019-05-11T01:33:18.570Z,2.40
2019-05-11T01:35:47.055Z,2.57
2019-05-11T01:38:15.960Z,2.53
2019-05-11T01:40:57.756Z,2.47
2019-05-11T01:43:15.358Z,2.40
2019-05-11T01:45:44.249Z,2.17
2019-05-11T01:48:13.093Z,2.30
2019-05-11T01:50:41.962Z,2.53
2019-05-11T01:53:10.877Z,2.50
2019-05-11T01:55:39.754Z,2.70
2019-05-11T01:58:08.547Z,2.50
2019-05-11T02:00:37.349Z,2.47
2019-05-11T02:03:06.210Z,2.57
2019-05-11T02:05:35.150Z,2.47
2019-05-11T02:08:04.100Z,2.63
2019-05-11T02:10:33.155Z,2.60
2019-05-11T02:13:03.311Z,2.60
2019-05-11T02:15:31.815Z,2.40
2019-05-11T02:18:00.602Z,2.23
2019-05-11T02:20:29.572Z,2.60
2019-05-11T02:22:58.557Z,2.20
2019-05-11T02:25:27.378Z,2.40
2019-05-11T02:27:56.174Z,1.93
2019-05-11T02:30:24.979Z,2.70
2019-05-11T02:32:53.787Z,2.70
2019-05-11T02:35:22.282Z,2.30
2019-05-11T02:37:51.165Z,2.47
2019-05-11T02:40:20.211Z,2.70
2019-05-11T02:42:49.002Z,2.23
2019-05-11T02:45:20.879Z,2.13
2019-05-11T02:47:49.681Z,2.37
2019-05-11T02:50:18.522Z,2.60
2019-05-11T02:52:48.223Z,2.30
2019-05-11T02:55:17.044Z,2.10
2019-05-11T02:57:45.909Z,1.97
2019-05-11T03:00:16.113Z,1.80
2019-05-11T03:02:44.595Z,1.70
2019-05-11T03:05:13.543Z,1.63
2019-05-11T03:07:42.459Z,1.93
2019-05-11T03:10:11.311Z,1.80
2019-05-11T03:12:40.107Z,1.70
2019-05-11T03:15:09.269Z,2.13
2019-05-11T03:17:38.077Z,1.90
2019-05-11T03:20:07.698Z,1.90
2019-05-11T03:22:38.465Z,1.80
2019-05-11T03:25:07.076Z,2.20
2019-05-11T03:27:35.908Z,1.80
2019-05-11T03:30:07.323Z,2.10
2019-05-11T03:32:36.194Z,1.73
2019-05-11T03:35:05.745Z,1.73
2019-05-11T03:37:41.941Z,2.07
2019-05-11T03:40:10.806Z,2.07
2019-05-11T03:42:39.618Z,1.70
2019-05-11T03:45:08.668Z,1.70
2019-05-11T03:47:37.499Z,1.80
2019-05-11T03:50:07.745Z,2.07
2019-05-11T03:52:36.555Z,1.60
2019-05-11T03:55:06.423Z,1.70
2019-05-11T03:57:35.225Z,1.90
2019-05-11T04:00:05.709Z,2.00
2019-05-11T04:02:34.158Z,1.97
2019-05-11T04:05:03.004Z,1.80
2019-05-11T04:07:31.814Z,1.60
2019-05-11T04:10:00.608Z,2.50
2019-05-11T04:12:34.606Z,2.33
2019-05-11T04:14:59.903Z,1.87
2019-05-11T04:17:28.712Z,1.83
2019-05-11T04:19:57.521Z,2.27
2019-05-11T04:22:25.958Z,2.23
2019-05-11T04:24:54.766Z,2.00
2019-05-11T04:27:23.571Z,2.00
2019-05-11T04:29:52.359Z,2.17
2019-05-11T04:32:21.157Z,2.37
2019-05-11T04:34:50.213Z,2.90
2019-05-11T04:37:19.116Z,2.60
2019-05-11T04:39:47.938Z,2.60
2019-05-11T04:42:16.745Z,2.07
2019-05-11T04:44:45.540Z,2.40
2019-05-11T04:47:15.942Z,2.20
2019-05-11T04:49:46.087Z,2.23
2019-05-11T04:52:14.979Z,2.50
2019-05-11T04:54:45.113Z,2.43
2019-05-11T04:57:15.456Z,2.00
2019-05-11T04:59:44.062Z,2.37
2019-05-11T05:02:14.251Z,2.03
2019-05-11T05:04:45.322Z,2.27
2019-05-11T05:07:16.596Z,2.13
2019-05-11T05:09:44.867Z,2.20
2019-05-11T05:12:15.640Z,2.47
2019-05-11T05:14:44.399Z,1.97
2019-05-11T05:17:13.259Z,2.50
2019-05-11T05:19:44.033Z,2.27
2019-05-11T05:22:12.901Z,2.37
2019-05-11T05:24:41.769Z,2.03
2019-05-11T05:27:10.684Z,2.20
2019-05-11T05:29:42.134Z,2.03
2019-05-11T05:32:10.991Z,2.40
2019-05-11T05:34:39.832Z,2.10
2019-05-11T05:37:10.015Z,1.90
2019-05-11T05:39:38.853Z,2.27
2019-05-11T05:42:08.960Z,1.80
2019-05-11T05:44:46.610Z,2.50
2019-05-11T05:47:15.836Z,2.27
2019-05-11T05:49:44.657Z,2.40
2019-05-11T05:52:37.494Z,1.90
2019-05-11T05:55:07.194Z,1.83
2019-05-11T05:57:36.119Z,1.77
2019-05-11T06:00:06.135Z,1.90
2019-05-11T06:02:35.017Z,2.00
2019-05-11T06:05:06.174Z,2.40
2019-05-11T06:07:35.075Z,2.10
2019-05-11T06:10:05.548Z,2.05
2019-05-11T06:12:34.352Z,2.40
2019-05-11T06:15:03.265Z,3.30
2019-05-11T06:17:32.094Z,3.10
2019-05-11T06:20:01.145Z,2.97
2019-05-11T06:22:30.042Z,2.67
2019-05-11T06:24:58.947Z,2.10
2019-05-11T06:27:27.748Z,2.12
2019-05-11T06:29:56.589Z,2.23
2019-05-11T06:32:25.375Z,2.30
2019-05-11T06:34:53.843Z,2.27
2019-05-11T06:37:22.677Z,1.90
2019-05-11T06:39:51.546Z,2.10
2019-05-11T06:42:20.350Z,2.00
2019-05-11T06:44:49.210Z,1.83
2019-05-11T06:47:18.003Z,1.82
2019-05-11T06:49:48.289Z,2.07
2019-05-11T06:52:17.138Z,1.90
2019-05-11T06:54:45.617Z,2.20
2019-05-11T06:57:14.476Z,1.87
2019-05-11T06:59:43.312Z,1.60
2019-05-11T07:02:12.442Z,1.85
2019-05-11T07:04:41.365Z,1.70
2019-05-11T07:07:10.192Z,1.30
2019-05-11T07:09:39.012Z,1.90
2019-05-11T07:12:07.924Z,1.85
2019-05-11T07:14:36.476Z,1.95
2019-05-11T07:17:15.048Z,1.98
2019-05-11T07:19:47.356Z,1.50
2019-05-11T07:22:14.740Z,1.45
2019-05-11T07:24:43.584Z,1.20
2019-05-11T07:27:12.431Z,1.50
2019-05-11T07:29:41.238Z,1.52
2019-05-11T07:32:22.428Z,1.50
2019-05-11T07:34:42.719Z,1.02
2019-05-11T07:37:11.588Z,0.90
2019-05-11T07:39:40.439Z,0.80
2019-05-11T07:42:09.237Z,0.85
2019-05-11T07:44:41.478Z,0.72
2019-05-11T07:47:08.710Z,0.60
2019-05-11T07:49:39.544Z,0.82
2019-05-11T07:52:09.414Z,0.80
2019-05-11T07:54:40.468Z,1.10
2019-05-11T07:57:09.320Z,1.22
2019-05-11T07:59:38.328Z,0.88
2019-05-11T08:02:08.887Z,0.82
2019-05-11T08:04:38.020Z,0.98
2019-05-11T08:07:07.700Z,0.60
2019-05-11T08:09:41.163Z,0.55
2019-05-11T08:12:08.905Z,0.70
2019-05-11T08:14:55.999Z,0.75
2019-05-11T08:17:09.145Z,0.50
2019-05-11T08:19:39.263Z,0.90
2019-05-11T08:22:08.810Z,1.02
2019-05-11T08:24:38.984Z,0.62
2019-05-11T08:27:09.025Z,0.68
2019-05-11T08:29:38.505Z,0.45
2019-05-11T08:32:08.494Z,0.65
2019-05-11T08:34:39.849Z,0.60
2019-05-11T08:37:08.851Z,0.65
2019-05-11T08:39:38.049Z,0.82
2019-05-11T08:42:08.743Z,0.50
2019-05-11T08:44:38.097Z,0.42
2019-05-11T08:47:08.643Z,0.53
2019-05-11T08:49:38.836Z,0.62
2019-05-11T08:52:08.214Z,0.50
2019-05-11T08:54:38.178Z,0.42
2019-05-11T08:57:08.106Z,0.37
2019-05-11T08:59:38.145Z,0.30
2019-05-11T09:02:08.128Z,0.55
2019-05-11T09:04:41.705Z,0.47
2019-05-11T09:07:08.078Z,0.42
2019-05-11T09:09:38.028Z,0.57
2019-05-11T09:12:07.818Z,0.50
2019-05-11T09:14:38.748Z,0.50
2019-05-11T09:17:07.917Z,0.50
2019-05-11T09:19:38.839Z,0.70
2019-05-11T09:22:08.290Z,0.80
2019-05-11T09:24:38.610Z,0.50
2019-05-11T09:27:18.393Z,0.60
2019-05-11T09:29:48.010Z,0.42
2019-05-11T09:32:18.154Z,0.50
2019-05-11T09:34:48.824Z,0.50
2019-05-11T09:37:18.367Z,0.40
2019-05-11T09:39:47.939Z,0.82
2019-05-11T09:42:17.894Z,0.60
2019-05-11T09:44:48.530Z,0.60
2019-05-11T09:47:19.132Z,3.90
2019-05-11T09:49:55.365Z,0.75
2019-05-11T09:52:24.235Z,1.60
2019-05-11T09:54:53.072Z,0.72
2019-05-11T09:57:21.926Z,2.05
2019-05-11T09:59:50.836Z,0.45
2019-05-11T10:02:21.155Z,0.62
2019-05-11T10:04:50.277Z,0.60
2019-05-11T10:07:18.758Z,0.85
2019-05-11T10:09:47.949Z,0.85
2019-05-11T10:12:18.081Z,1.50
2019-05-11T10:14:48.623Z,0.70
2019-05-11T10:17:18.207Z,0.57
2019-05-11T10:19:49.553Z,1.10
2019-05-11T10:22:18.571Z,0.75
2019-05-11T10:24:47.803Z,0.68
2019-05-11T10:27:19.032Z,0.75
2019-05-11T10:29:48.528Z,0.90
2019-05-11T10:32:18.337Z,0.20
2019-05-11T10:34:47.785Z,0.42
2019-05-11T10:37:17.714Z,1.60
2019-05-11T10:39:48.743Z,1.10
2019-05-11T10:42:18.007Z,0.20
2019-05-11T10:44:47.874Z,0.40
2019-05-11T10:47:18.406Z,0.40
2019-05-11T10:49:49.114Z,0.60
2019-05-11T10:52:18.158Z,0.70
2019-05-11T10:54:47.820Z,0.25
2019-05-11T10:57:18.876Z,0.50
2019-05-11T10:59:48.904Z,0.35
2019-05-11T11:02:18.490Z,0.33
2019-05-11T11:04:48.574Z,0.30
2019-05-11T11:07:19.458Z,0.30
2019-05-11T11:09:49.215Z,0.30
2019-05-11T11:12:19.304Z,0.20
2019-05-11T11:14:49.150Z,0.28
2019-05-11T11:17:19.183Z,0.20
2019-05-11T11:19:48.777Z,0.30
2019-05-11T11:22:35.941Z,0.40
2019-05-11T11:24:48.302Z,0.28
2019-05-11T11:27:18.506Z,0.30
2019-05-11T11:29:47.710Z,0.30
2019-05-11T11:32:18.424Z,0.70
2019-05-11T11:34:48.478Z,0.70
2019-05-11T11:37:18.989Z,1.30
2019-05-11T11:39:47.885Z,0.45
2019-05-11T11:42:17.866Z,0.13
2019-05-11T11:44:48.445Z,0.30
2019-05-11T11:47:21.394Z,0.20
2019-05-11T11:49:47.831Z,0.23
2019-05-11T11:52:18.817Z,0.72
2019-05-11T11:54:47.883Z,0.10
2019-05-11T11:57:18.230Z,0.20
2019-05-11T11:59:48.178Z,0.20
2019-05-11T12:02:18.881Z,0.13
2019-05-11T12:04:49.130Z,0.10
2019-05-11T12:07:18.127Z,0.20
2019-05-11T12:09:48.373Z,0.20
2019-05-11T12:12:19.497Z,0.20
2019-05-11T12:14:48.237Z,0.10
2019-05-11T12:17:18.218Z,0.20
2019-05-11T12:19:47.889Z,0.50
2019-05-11T12:22:18.773Z,0.10
2019-05-11T12:24:48.132Z,0.40
2019-05-11T12:27:18.265Z,0.20
2019-05-11T12:29:47.739Z,0.28
2019-05-11T12:32:18.553Z,0.25
2019-05-11T12:34:48.197Z,0.40
2019-05-11T12:37:17.915Z,0.30
2019-05-11T12:39:47.822Z,0.20
2019-05-11T12:42:17.964Z,0.33
2019-05-11T12:44:48.140Z,0.50
2019-05-11T12:47:22.169Z,0.10
2019-05-11T12:49:48.436Z,0.40
2019-05-11T12:52:19.839Z,0.50
2019-05-11T12:54:48.920Z,0.40
2019-05-11T12:57:18.575Z,0.42
2019-05-11T12:59:50.906Z,0.30
2019-05-11T13:02:19.501Z,0.20
2019-05-11T13:04:48.370Z,0.25
2019-05-11T13:07:19.641Z,0.33
2019-05-11T13:09:58.118Z,0.20
2019-05-11T13:12:29.795Z,0.30
2019-05-11T13:14:58.240Z,0.20
2019-05-11T13:17:36.729Z,0.20
2019-05-11T13:19:58.805Z,0.10
2019-05-11T13:22:29.005Z,0.10
2019-05-11T13:24:59.524Z,0.10
2019-05-11T13:27:28.508Z,0.10
2019-05-11T13:29:59.219Z,0.30
2019-05-11T13:32:28.258Z,0.10
2019-05-11T13:34:58.392Z,0.20
2019-05-11T13:37:28.299Z,0.20
2019-05-11T13:39:57.975Z,0.25
2019-05-11T13:42:27.725Z,0.20
2019-05-11T13:44:58.443Z,0.40
2019-05-11T13:47:28.261Z,0.10
2019-05-11T13:49:58.468Z,0.20
2019-05-11T13:52:28.663Z,0.13
2019-05-11T13:54:58.498Z,0.20
2019-05-11T13:57:28.598Z,0.10
2019-05-11T13:59:58.033Z,0.10
2019-05-11T14:02:32.830Z,0.10
2019-05-11T14:05:01.719Z,0.20
2019-05-11T14:07:30.572Z,0.13
2019-05-11T14:09:59.449Z,0.10
2019-05-11T14:12:28.750Z,0.40
2019-05-11T14:14:57.743Z,0.28
2019-05-11T14:17:28.744Z,0.70
2019-05-11T14:19:58.481Z,0.40
2019-05-11T14:22:28.184Z,0.30
2019-05-11T14:24:58.584Z,0.10
2019-05-11T14:27:28.421Z,0.20
2019-05-11T14:29:57.796Z,0.10
2019-05-11T14:32:28.480Z,0.30
2019-05-11T14:34:57.919Z,0.40
2019-05-11T14:37:28.568Z,0.20
2019-05-11T14:39:58.421Z,0.50
2019-05-11T14:42:28.647Z,0.20
2019-05-11T14:44:58.993Z,0.13
2019-05-11T14:47:28.362Z,0.20
2019-05-11T14:49:57.840Z,0.20
2019-05-11T14:52:28.059Z,0.25
2019-05-11T14:54:58.532Z,0.30
2019-05-11T14:57:27.836Z,0.30
2019-05-11T14:59:58.621Z,0.42
2019-05-11T15:02:48.477Z,0.25
2019-05-11T15:05:18.336Z,0.20
2019-05-11T15:07:47.851Z,0.20
2019-05-11T15:10:18.713Z,0.23
2019-05-11T15:12:48.916Z,0.17
2019-05-11T15:15:18.874Z,0.28
2019-05-11T15:17:49.286Z,0.10
2019-05-11T15:20:19.995Z,0.20
2019-05-11T15:22:49.115Z,0.20
2019-05-11T15:25:19.420Z,0.30
2019-05-11T15:27:48.885Z,0.30
2019-05-11T15:30:19.532Z,0.37
2019-05-11T15:32:48.557Z,0.30
2019-05-11T15:35:18.611Z,0.30
2019-05-11T15:37:48.384Z,0.30
2019-05-11T15:40:18.855Z,0.50
2019-05-11T15:42:48.663Z,0.30
2019-05-11T15:45:19.786Z,0.40
2019-05-11T15:47:49.685Z,0.70
2019-05-11T15:50:19.526Z,0.73
2019-05-11T15:52:49.014Z,0.77
2019-05-11T15:55:21.104Z,0.50
2019-05-11T15:57:49.992Z,1.27
2019-05-11T16:00:19.109Z,0.93
2019-05-11T16:02:49.332Z,1.00
2019-05-11T16:05:18.625Z,1.90
2019-05-11T16:07:49.156Z,1.00
2019-05-11T16:10:18.963Z,0.93
2019-05-11T16:12:48.584Z,0.73
2019-05-11T16:15:19.195Z,0.90
2019-05-11T16:17:48.977Z,1.10
2019-05-11T16:20:19.152Z,1.50
2019-05-11T16:22:48.293Z,1.30
2019-05-11T16:25:19.772Z,1.57
2019-05-11T16:27:50.512Z,0.83
2019-05-11T16:30:21.480Z,0.90
2019-05-11T16:32:50.424Z,0.97
2019-05-11T16:35:19.315Z,0.70
2019-05-11T16:37:48.842Z,1.20
2019-05-11T16:40:20.806Z,1.10
2019-05-11T16:42:50.901Z,1.40
2019-05-11T16:45:23.895Z,0.90
2019-05-11T16:47:51.591Z,1.30
2019-05-11T16:50:20.954Z,10.70
2019-05-11T16:52:49.800Z,1.40
2019-05-11T16:55:18.737Z,1.07
2019-05-11T16:57:48.418Z,1.10
2019-05-11T17:00:18.376Z,1.33
2019-05-11T17:02:49.030Z,1.00
2019-05-11T17:05:26.348Z,1.37
2019-05-11T17:07:48.570Z,2.47
2019-05-11T17:10:18.234Z,1.30
2019-05-11T17:12:48.289Z,2.13
2019-05-11T17:15:19.274Z,2.03
2019-05-11T17:17:50.074Z,3.23
2019-05-11T17:20:19.208Z,1.73
2019-05-11T17:22:48.766Z,1.30
2019-05-11T17:25:19.104Z,2.00
2019-05-11T17:27:50.055Z,1.77
2019-05-11T17:30:19.648Z,2.10
2019-05-11T17:32:49.457Z,1.77
2019-05-11T17:35:18.677Z,1.90
2019-05-11T17:37:48.540Z,1.23
2019-05-11T17:40:22.437Z,1.07
2019-05-11T17:42:48.552Z,0.80
2019-05-11T17:45:18.869Z,0.90
2019-05-11T17:47:47.647Z,1.10
2019-05-11T17:50:19.026Z,1.10
2019-05-11T17:52:47.964Z,1.40
2019-05-11T17:55:18.538Z,1.00
2019-05-11T17:57:49.696Z,1.20
2019-05-11T18:00:19.781Z,1.00
2019-05-11T18:02:49.075Z,1.20
2019-05-11T18:05:20.607Z,0.97
2019-05-11T18:07:49.421Z,1.17
2019-05-11T18:10:18.547Z,1.50
2019-05-11T18:12:48.608Z,2.00
2019-05-11T18:15:18.662Z,1.63
2019-05-11T18:17:48.586Z,2.23
2019-05-11T18:20:21.779Z,1.77
2019-05-11T18:22:50.133Z,2.17
2019-05-11T18:25:19.138Z,3.37
2019-05-11T18:27:48.395Z,3.03
2019-05-11T18:30:18.430Z,3.03
2019-05-11T18:32:49.006Z,2.50
2019-05-11T18:35:19.414Z,2.93
2019-05-11T18:37:48.363Z,2.90
2019-05-11T18:40:18.653Z,2.97
2019-05-11T18:42:48.791Z,2.73
2019-05-11T18:45:18.937Z,2.73
2019-05-11T18:47:49.156Z,3.73
2019-05-11T18:50:29.939Z,3.53
2019-05-11T18:52:49.408Z,2.87
2019-05-11T18:55:18.953Z,3.20
2019-05-11T18:57:48.962Z,3.93
2019-05-11T19:00:19.392Z,3.43
2019-05-11T19:02:49.436Z,3.60
2019-05-11T19:05:18.818Z,3.60
2019-05-11T19:07:48.323Z,3.53
2019-05-11T19:10:17.469Z,3.63
2019-05-11T19:12:48.624Z,3.30
2019-05-11T19:15:18.828Z,3.53
2019-05-11T19:17:49.010Z,4.37
2019-05-11T19:20:18.997Z,4.57
2019-05-11T19:22:47.961Z,4.43
2019-05-11T19:25:18.152Z,5.10
2019-05-11T19:27:50.755Z,4.23
2019-05-11T19:30:24.373Z,5.20
2019-05-11T19:32:53.301Z,5.40
2019-05-11T19:35:22.118Z,5.10
2019-05-11T19:37:50.654Z,6.00
2019-05-11T19:40:20.306Z,6.33
2019-05-11T19:42:59.628Z,7.47
2019-05-11T19:45:33.012Z,6.70
2019-05-11T19:48:02.244Z,5.90
2019-05-11T19:50:34.537Z,6.10
2019-05-11T19:53:03.747Z,5.60
2019-05-11T19:55:34.320Z,6.63
2019-05-11T19:58:03.944Z,7.33
2019-05-11T20:00:39.691Z,7.17
2019-05-11T20:03:23.429Z,6.50
2019-05-11T20:08:59.844Z,8.07
2019-05-11T20:11:27.941Z,8.63
2019-05-11T20:15:19.087Z,8.93
2019-05-11T20:16:37.647Z,7.70
2019-05-11T20:19:18.150Z,7.90
2019-05-11T20:21:48.533Z,8.60
2019-05-11T20:24:25.163Z,9.67
2019-05-11T20:29:50.838Z,9.50
2019-05-11T20:32:18.683Z,9.27
2019-05-11T20:34:49.846Z,9.80
2019-05-11T20:37:20.796Z,10.30
2019-05-11T20:39:50.031Z,11.00
2019-05-11T20:42:29.492Z,10.03
2019-05-11T20:44:50.219Z,10.00
2019-05-11T20:47:19.186Z,10.10
2019-05-11T20:49:48.300Z,10.27
2019-05-11T20:52:18.851Z,11.20
2019-05-11T20:54:47.841Z,10.30
2019-05-11T20:57:17.973Z,11.30
2019-05-11T20:59:48.444Z,11.33
2019-05-11T21:02:18.232Z,12.47
2019-05-11T21:04:49.063Z,11.10
2019-05-11T21:07:19.930Z,12.60
2019-05-11T21:09:49.202Z,12.20
2019-05-11T21:12:32.276Z,11.93
2019-05-11T21:14:51.561Z,11.67
2019-05-11T21:17:21.676Z,12.30
2019-05-11T21:19:51.856Z,12.40
2019-05-11T21:22:22.017Z,11.80
2019-05-11T21:24:50.893Z,12.67
2019-05-11T21:27:21.080Z,11.23
2019-05-11T21:29:51.230Z,11.50
2019-05-11T21:32:20.376Z,11.70
2019-05-11T21:34:50.527Z,11.73
2019-05-11T21:37:20.708Z,12.13
2019-05-11T21:39:49.514Z,12.00
2019-05-11T21:42:18.409Z,11.30
2019-05-11T21:44:47.219Z,13.10
2019-05-11T21:47:18.169Z,12.73
2019-05-11T21:49:48.501Z,13.63
2019-05-11T21:52:18.124Z,13.77
2019-05-11T21:54:48.966Z,12.20
2019-05-11T21:57:18.575Z,11.60
2019-05-11T21:59:48.478Z,13.00
2019-05-11T22:02:18.472Z,12.83
2019-05-11T22:04:48.683Z,10.67
2019-05-11T22:07:17.565Z,12.30
2019-05-11T22:09:46.382Z,11.40
2019-05-11T22:12:15.280Z,14.13
2019-05-11T22:14:44.105Z,12.37
2019-05-11T22:17:13.048Z,12.97
2019-05-11T22:19:41.911Z,10.20
2019-05-11T22:22:21.523Z,10.43
2019-05-11T22:24:41.339Z,10.90
2019-05-11T22:27:10.175Z,12.93
2019-05-11T22:29:39.021Z,13.13
2019-05-11T22:32:07.528Z,13.30
2019-05-11T22:34:37.809Z,12.83
2019-05-11T22:37:08.658Z,12.83
2019-05-11T22:39:37.768Z,11.50
2019-05-11T22:42:08.115Z,12.77
2019-05-11T22:44:38.645Z,13.47
2019-05-11T22:47:08.960Z,12.47
2019-05-11T22:49:39.471Z,14.10
2019-05-11T22:52:08.851Z,12.90
2019-05-11T22:54:38.340Z,13.90
2019-05-11T22:57:08.104Z,13.17
2019-05-11T22:59:38.500Z,14.53
2019-05-11T23:02:07.674Z,14.30
2019-05-11T23:04:38.326Z,12.33
2019-05-11T23:07:07.995Z,14.53
2019-05-11T23:09:38.158Z,13.10
2019-05-11T23:12:09.039Z,13.23
2019-05-11T23:14:37.803Z,14.30
2019-05-11T23:17:08.129Z,14.00
2019-05-11T23:19:38.146Z,14.73
2019-05-11T23:22:08.271Z,13.30
2019-05-11T23:24:37.555Z,13.20
2019-05-11T23:27:08.042Z,15.17
2019-05-11T23:29:38.423Z,15.07
2019-05-11T23:32:08.651Z,13.60
2019-05-11T23:34:38.792Z,15.97
2019-05-11T23:37:08.023Z,16.07
2019-05-11T23:39:38.764Z,17.10
2019-05-11T23:42:08.183Z,17.20
2019-05-11T23:44:38.477Z,18.47
2019-05-11T23:47:07.295Z,16.70
2019-05-11T23:49:36.102Z,16.23
2019-05-11T23:52:04.904Z,17.17
2019-05-11T23:54:33.771Z,16.23
2019-05-11T23:57:02.564Z,15.10
2019-05-11T23:59:31.836Z,15.23
